sensor_id;sensor_type;location;lat;lon;timestamp;pressure;altitude;pressure_sealevel;temperature;humidity
63903;BME280;50072;50.678;13.938;2023-01-29T00:01:38;100814.09;;;-2.09;70.08
63903;BME280;50072;50.678;13.938;2023-01-29T00:04:08;100804.09;;;-2.18;70.74
63903;BME280;50072;50.678;13.938;2023-01-29T00:06:38;100812.16;;;-2.13;70.66
63903;BME280;50072;50.678;13.938;2023-01-29T00:09:11;100811.34;;;-2.12;70.02
63903;BME280;50072;50.678;13.938;2023-01-29T00:11:39;100803.13;;;-2.20;69.63
63903;BME280;50072;50.678;13.938;2023-01-29T00:14:09;100798.69;;;-2.21;70.52
63903;BME280;50072;50.678;13.938;2023-01-29T00:16:41;100810.09;;;-2.20;70.38
63903;BME280;50072;50.678;13.938;2023-01-29T00:19:08;100798.56;;;-2.24;69.70
63903;BME280;50072;50.678;13.938;2023-01-29T00:21:34;100792.69;;;-2.18;69.88
63903;BME280;50072;50.678;13.938;2023-01-29T00:24:08;100795.56;;;-2.14;69.72
63903;BME280;50072;50.678;13.938;2023-01-29T00:26:40;100776.69;;;-2.24;70.05
63903;BME280;50072;50.678;13.938;2023-01-29T00:29:08;100775.09;;;-2.21;70.01
63903;BME280;50072;50.678;13.938;2023-01-29T00:31:34;100765.84;;;-2.13;69.96
63903;BME280;50072;50.678;13.938;2023-01-29T00:34:08;100761.66;;;-2.09;69.86
63903;BME280;50072;50.678;13.938;2023-01-29T00:36:35;100763.16;;;-2.14;69.50
63903;BME280;50072;50.678;13.938;2023-01-29T00:39:08;100772.75;;;-2.15;69.76
63903;BME280;50072;50.678;13.938;2023-01-29T00:41:56;100768.28;;;-2.17;70.30
63903;BME280;50072;50.678;13.938;2023-01-29T00:45:11;100776.97;;;-2.18;69.23
63903;BME280;50072;50.678;13.938;2023-01-29T00:47:38;100769.31;;;-2.14;69.26
63903;BME280;50072;50.678;13.938;2023-01-29T00:50:08;100772.13;;;-2.09;69.49
63903;BME280;50072;50.678;13.938;2023-01-29T00:52:38;100769.16;;;-2.17;69.62
63903;BME280;50072;50.678;13.938;2023-01-29T00:55:09;100764.06;;;-2.14;69.55
63903;BME280;50072;50.678;13.938;2023-01-29T00:57:36;100765.22;;;-2.07;71.04
63903;BME280;50072;50.678;13.938;2023-01-29T01:00:10;100771.00;;;-1.95;70.43
63903;BME280;50072;50.678;13.938;2023-01-29T01:02:38;100757.75;;;-1.98;70.82
63903;BME280;50072;50.678;13.938;2023-01-29T01:05:38;100754.03;;;-2.03;70.95
63903;BME280;50072;50.678;13.938;2023-01-29T01:08:06;100752.53;;;-1.98;71.42
63903;BME280;50072;50.678;13.938;2023-01-29T01:11:06;100744.06;;;-1.91;69.52
63903;BME280;50072;50.678;13.938;2023-01-29T01:13:39;100725.78;;;-1.89;69.38
63903;BME280;50072;50.678;13.938;2023-01-29T01:16:12;100746.50;;;-1.95;69.08
63903;BME280;50072;50.678;13.938;2023-01-29T01:18:38;100746.16;;;-2.03;69.38
63903;BME280;50072;50.678;13.938;2023-01-29T01:21:08;100740.91;;;-2.03;69.75
63903;BME280;50072;50.678;13.938;2023-01-29T01:23:41;100729.03;;;-1.95;70.00
63903;BME280;50072;50.678;13.938;2023-01-29T01:26:08;100739.66;;;-1.92;70.32
63903;BME280;50072;50.678;13.938;2023-01-29T01:28:38;100736.34;;;-1.87;70.29
63903;BME280;50072;50.678;13.938;2023-01-29T01:31:10;100738.97;;;-1.87;70.24
63903;BME280;50072;50.678;13.938;2023-01-29T01:33:39;100735.91;;;-1.97;70.75
63903;BME280;50072;50.678;13.938;2023-01-29T01:36:11;100742.91;;;-1.97;71.43
63903;BME280;50072;50.678;13.938;2023-01-29T01:38:38;100743.25;;;-1.89;71.75
63903;BME280;50072;50.678;13.938;2023-01-29T01:41:11;100747.19;;;-1.78;72.04
63903;BME280;50072;50.678;13.938;2023-01-29T01:43:57;100752.78;;;-1.70;71.14
63903;BME280;50072;50.678;13.938;2023-01-29T01:46:38;100748.47;;;-1.68;72.18
63903;BME280;50072;50.678;13.938;2023-01-29T01:49:15;100747.72;;;-1.66;71.34
63903;BME280;50072;50.678;13.938;2023-01-29T01:51:53;100743.94;;;-1.73;71.21
63903;BME280;50072;50.678;13.938;2023-01-29T01:54:38;100750.69;;;-1.79;71.27
63903;BME280;50072;50.678;13.938;2023-01-29T01:57:12;100750.88;;;-1.75;70.77
63903;BME280;50072;50.678;13.938;2023-01-29T02:02:36;100739.13;;;-1.83;71.95
63903;BME280;50072;50.678;13.938;2023-01-29T02:05:39;100735.00;;;-1.78;71.82
63903;BME280;50072;50.678;13.938;2023-01-29T02:11:46;100745.16;;;-1.85;73.19
63903;BME280;50072;50.678;13.938;2023-01-29T02:14:39;100740.81;;;-1.85;72.19
63903;BME280;50072;50.678;13.938;2023-01-29T02:17:13;100737.91;;;-1.91;72.20
63903;BME280;50072;50.678;13.938;2023-01-29T02:19:52;100742.66;;;-2.03;72.59
63903;BME280;50072;50.678;13.938;2023-01-29T02:28:54;100740.66;;;-2.09;72.60
63903;BME280;50072;50.678;13.938;2023-01-29T02:31:51;100733.38;;;-2.16;72.71
63903;BME280;50072;50.678;13.938;2023-01-29T02:34:35;100726.19;;;-2.20;73.10
63903;BME280;50072;50.678;13.938;2023-01-29T02:37:53;100722.47;;;-2.26;73.94
63903;BME280;50072;50.678;13.938;2023-01-29T02:40:42;100713.06;;;-2.20;73.22
63903;BME280;50072;50.678;13.938;2023-01-29T02:55:09;100726.47;;;-2.34;73.50
63903;BME280;50072;50.678;13.938;2023-01-29T02:57:42;100715.72;;;-2.40;73.07
63903;BME280;50072;50.678;13.938;2023-01-29T03:00:12;100714.78;;;-2.42;73.48
63903;BME280;50072;50.678;13.938;2023-01-29T03:08:40;100706.34;;;-2.54;73.96
63903;BME280;50072;50.678;13.938;2023-01-29T03:11:12;100702.00;;;-2.54;73.95
63903;BME280;50072;50.678;13.938;2023-01-29T03:13:56;100712.69;;;-2.49;74.43
63903;BME280;50072;50.678;13.938;2023-01-29T03:16:46;100712.53;;;-2.52;73.63
63903;BME280;50072;50.678;13.938;2023-01-29T03:19:37;100715.09;;;-2.54;74.46
63903;BME280;50072;50.678;13.938;2023-01-29T03:22:12;100704.16;;;-2.45;74.24
63903;BME280;50072;50.678;13.938;2023-01-29T03:24:49;100718.97;;;-2.46;73.82
63903;BME280;50072;50.678;13.938;2023-01-29T03:27:45;100709.91;;;-2.52;74.18
63903;BME280;50072;50.678;13.938;2023-01-29T03:30:44;100712.84;;;-2.46;74.49
63903;BME280;50072;50.678;13.938;2023-01-29T03:33:49;100715.09;;;-2.54;74.46
63903;BME280;50072;50.678;13.938;2023-01-29T03:36:22;100711.94;;;-2.66;75.11
63903;BME280;50072;50.678;13.938;2023-01-29T03:39:09;100711.88;;;-2.68;75.07
63903;BME280;50072;50.678;13.938;2023-01-29T03:41:47;100709.03;;;-2.72;75.71
63903;BME280;50072;50.678;13.938;2023-01-29T03:44:53;100708.22;;;-2.71;75.71
63903;BME280;50072;50.678;13.938;2023-01-29T03:47:44;100709.25;;;-2.87;76.41
63903;BME280;50072;50.678;13.938;2023-01-29T03:53:17;100728.25;;;-2.91;77.43
63903;BME280;50072;50.678;13.938;2023-01-29T03:58:41;100719.00;;;-3.03;76.89
63903;BME280;50072;50.678;13.938;2023-01-29T04:01:13;100718.88;;;-3.06;76.99
63903;BME280;50072;50.678;13.938;2023-01-29T04:03:49;100724.50;;;-2.97;77.32
63903;BME280;50072;50.678;13.938;2023-01-29T04:06:35;100723.91;;;-2.91;77.88
63903;BME280;50072;50.678;13.938;2023-01-29T04:09:12;100728.00;;;-2.98;77.60
63903;BME280;50072;50.678;13.938;2023-01-29T04:11:42;100725.00;;;-3.05;78.03
63903;BME280;50072;50.678;13.938;2023-01-29T04:14:14;100727.41;;;-3.10;78.42
63903;BME280;50072;50.678;13.938;2023-01-29T04:16:50;100721.09;;;-3.14;78.56
63903;BME280;50072;50.678;13.938;2023-01-29T04:19:32;100718.59;;;-3.12;78.13
63903;BME280;50072;50.678;13.938;2023-01-29T04:22:19;100720.56;;;-3.26;78.95
63903;BME280;50072;50.678;13.938;2023-01-29T04:25:10;100718.53;;;-3.32;79.69
63903;BME280;50072;50.678;13.938;2023-01-29T04:42:22;100694.41;;;-3.80;81.97
63903;BME280;50072;50.678;13.938;2023-01-29T04:45:56;100687.06;;;-3.87;81.90
63903;BME280;50072;50.678;13.938;2023-01-29T04:51:24;100682.13;;;-3.81;82.28
63903;BME280;50072;50.678;13.938;2023-01-29T04:57:59;100675.34;;;-3.95;82.67
63903;BME280;50072;50.678;13.938;2023-01-29T05:00:12;100686.44;;;-4.00;82.91
63903;BME280;50072;50.678;13.938;2023-01-29T05:02:48;100672.44;;;-4.02;82.67
63903;BME280;50072;50.678;13.938;2023-01-29T05:05:18;100673.38;;;-4.00;83.58
63903;BME280;50072;50.678;13.938;2023-01-29T05:07:48;100678.97;;;-4.10;83.21
63903;BME280;50072;50.678;13.938;2023-01-29T05:10:18;100679.56;;;-4.16;83.61
63903;BME280;50072;50.678;13.938;2023-01-29T05:12:50;100673.13;;;-4.22;84.21
63903;BME280;50072;50.678;13.938;2023-01-29T05:15:22;100668.81;;;-4.22;85.30
63903;BME280;50072;50.678;13.938;2023-01-29T05:18:08;100658.75;;;-4.30;85.24
63903;BME280;50072;50.678;13.938;2023-01-29T05:20:42;100648.09;;;-4.35;85.01
63903;BME280;50072;50.678;13.938;2023-01-29T05:23:14;100644.09;;;-4.45;84.81
63903;BME280;50072;50.678;13.938;2023-01-29T05:26:08;100642.16;;;-4.49;84.80
63903;BME280;50072;50.678;13.938;2023-01-29T05:28:39;100637.63;;;-4.53;85.07
63903;BME280;50072;50.678;13.938;2023-01-29T05:31:11;100631.09;;;-4.61;85.09
63903;BME280;50072;50.678;13.938;2023-01-29T05:33:39;100629.13;;;-4.65;85.23
63903;BME280;50072;50.678;13.938;2023-01-29T05:36:09;100627.63;;;-4.60;84.72
63903;BME280;50072;50.678;13.938;2023-01-29T05:38:40;100640.22;;;-4.53;84.28
63903;BME280;50072;50.678;13.938;2023-01-29T05:41:08;100634.09;;;-4.54;84.11
63903;BME280;50072;50.678;13.938;2023-01-29T05:43:42;100627.81;;;-4.57;84.53
63903;BME280;50072;50.678;13.938;2023-01-29T05:46:08;100632.78;;;-4.62;85.15
63903;BME280;50072;50.678;13.938;2023-01-29T05:48:41;100631.25;;;-4.58;85.31
63903;BME280;50072;50.678;13.938;2023-01-29T05:51:08;100632.78;;;-4.62;84.59
63903;BME280;50072;50.678;13.938;2023-01-29T05:53:40;100625.94;;;-4.60;84.82
63903;BME280;50072;50.678;13.938;2023-01-29T05:56:11;100621.44;;;-4.62;85.29
63903;BME280;50072;50.678;13.938;2023-01-29T05:58:38;100628.13;;;-4.68;85.27
63903;BME280;50072;50.678;13.938;2023-01-29T06:01:10;100627.19;;;-4.70;84.37
63903;BME280;50072;50.678;13.938;2023-01-29T06:03:38;100616.25;;;-4.79;84.61
63903;BME280;50072;50.678;13.938;2023-01-29T06:06:11;100616.09;;;-4.82;84.43
63903;BME280;50072;50.678;13.938;2023-01-29T06:08:38;100621.00;;;-4.88;82.86
63903;BME280;50072;50.678;13.938;2023-01-29T06:11:10;100621.72;;;-4.91;82.78
63903;BME280;50072;50.678;13.938;2023-01-29T06:13:39;100623.13;;;-4.97;82.92
63903;BME280;50072;50.678;13.938;2023-01-29T06:16:08;100630.13;;;-4.96;82.75
63903;BME280;50072;50.678;13.938;2023-01-29T06:18:39;100640.50;;;-4.98;82.95
63903;BME280;50072;50.678;13.938;2023-01-29T06:21:12;100640.34;;;-5.01;84.19
63903;BME280;50072;50.678;13.938;2023-01-29T06:23:39;100633.56;;;-4.97;84.01
63903;BME280;50072;50.678;13.938;2023-01-29T06:26:13;100632.44;;;-5.03;82.60
63903;BME280;50072;50.678;13.938;2023-01-29T06:28:41;100637.66;;;-5.03;83.89
63903;BME280;50072;50.678;13.938;2023-01-29T06:31:09;100641.81;;;-5.06;83.40
63903;BME280;50072;50.678;13.938;2023-01-29T06:33:38;100641.66;;;-5.09;83.03
63903;BME280;50072;50.678;13.938;2023-01-29T06:36:10;100653.00;;;-5.09;83.28
63903;BME280;50072;50.678;13.938;2023-01-29T06:38:38;100655.69;;;-5.07;84.61
63903;BME280;50072;50.678;13.938;2023-01-29T06:41:15;100650.84;;;-5.16;84.66
63903;BME280;50072;50.678;13.938;2023-01-29T06:44:09;100649.06;;;-5.17;83.84
63903;BME280;50072;50.678;13.938;2023-01-29T06:46:36;100656.06;;;-5.16;83.86
63903;BME280;50072;50.678;13.938;2023-01-29T06:49:08;100650.84;;;-5.16;83.34
63903;BME280;50072;50.678;13.938;2023-01-29T06:51:38;100656.81;;;-5.18;83.79
63903;BME280;50072;50.678;13.938;2023-01-29T06:54:04;100667.66;;;-5.11;83.90
63903;BME280;50072;50.678;13.938;2023-01-29T06:56:33;100672.25;;;-5.07;83.97
63903;BME280;50072;50.678;13.938;2023-01-29T06:59:01;100675.81;;;-5.21;82.68
63903;BME280;50072;50.678;13.938;2023-01-29T07:01:28;100670.13;;;-5.14;84.19
63903;BME280;50072;50.678;13.938;2023-01-29T07:03:55;100680.56;;;-5.14;83.42
63903;BME280;50072;50.678;13.938;2023-01-29T07:06:29;100694.56;;;-5.12;85.01
63903;BME280;50072;50.678;13.938;2023-01-29T07:08:56;100704.81;;;-5.00;83.81
63903;BME280;50072;50.678;13.938;2023-01-29T07:11:22;100716.28;;;-4.96;83.23
63903;BME280;50072;50.678;13.938;2023-01-29T07:13:48;100719.91;;;-4.94;83.09
63903;BME280;50072;50.678;13.938;2023-01-29T07:16:16;100720.53;;;-4.82;82.63
63903;BME280;50072;50.678;13.938;2023-01-29T07:18:43;100707.34;;;-4.69;82.06
63903;BME280;50072;50.678;13.938;2023-01-29T07:21:11;100706.13;;;-4.59;81.70
63903;BME280;50072;50.678;13.938;2023-01-29T07:23:37;100716.44;;;-4.44;81.06
63903;BME280;50072;50.678;13.938;2023-01-29T07:26:05;100711.28;;;-4.26;80.74
63903;BME280;50072;50.678;13.938;2023-01-29T07:28:39;100710.66;;;-4.04;80.29
63903;BME280;50072;50.678;13.938;2023-01-29T07:31:06;100713.81;;;-3.75;79.34
63903;BME280;50072;50.678;13.938;2023-01-29T07:33:32;100712.84;;;-3.41;79.50
63903;BME280;50072;50.678;13.938;2023-01-29T07:35:59;100716.53;;;-3.37;77.78
63903;BME280;50072;50.678;13.938;2023-01-29T07:38:25;100719.50;;;-3.30;78.08
63903;BME280;50072;50.678;13.938;2023-01-29T07:40:52;100734.44;;;-3.09;76.53
63903;BME280;50072;50.678;13.938;2023-01-29T07:43:18;100732.38;;;-2.97;77.27
63903;BME280;50072;50.678;13.938;2023-01-29T07:45:44;100733.50;;;-2.91;76.17
63903;BME280;50072;50.678;13.938;2023-01-29T07:48:11;100733.41;;;-2.75;76.15
63903;BME280;50072;50.678;13.938;2023-01-29T07:50:38;100736.22;;;-2.70;75.87
63903;BME280;50072;50.678;13.938;2023-01-29T07:53:04;100726.06;;;-2.63;76.17
63903;BME280;50072;50.678;13.938;2023-01-29T07:55:32;100725.44;;;-2.57;76.05
63903;BME280;50072;50.678;13.938;2023-01-29T07:58:01;100730.81;;;-2.54;75.28
63903;BME280;50072;50.678;13.938;2023-01-29T08:00:29;100719.72;;;-2.48;74.08
63903;BME280;50072;50.678;13.938;2023-01-29T08:03:11;100713.78;;;-2.44;74.05
63903;BME280;50072;50.678;13.938;2023-01-29T08:05:38;100728.94;;;-2.37;75.07
63903;BME280;50072;50.678;13.938;2023-01-29T08:08:04;100712.94;;;-2.23;73.83
63903;BME280;50072;50.678;13.938;2023-01-29T08:10:31;100708.84;;;-2.17;74.02
63903;BME280;50072;50.678;13.938;2023-01-29T08:12:59;100700.91;;;-2.18;73.36
63903;BME280;50072;50.678;13.938;2023-01-29T08:15:27;100702.91;;;-2.13;72.56
63903;BME280;50072;50.678;13.938;2023-01-29T08:17:53;100706.69;;;-2.06;72.24
63903;BME280;50072;50.678;13.938;2023-01-29T08:20:21;100711.25;;;-2.02;72.15
63903;BME280;50072;50.678;13.938;2023-01-29T08:22:47;100711.13;;;-2.05;72.83
63903;BME280;50072;50.678;13.938;2023-01-29T08:25:14;100714.31;;;-1.91;72.61
63903;BME280;50072;50.678;13.938;2023-01-29T08:27:41;100716.16;;;-1.88;71.76
63903;BME280;50072;50.678;13.938;2023-01-29T08:30:09;100718.16;;;-1.83;72.09
63903;BME280;50072;50.678;13.938;2023-01-29T08:32:35;100712.84;;;-1.84;71.67
63903;BME280;50072;50.678;13.938;2023-01-29T08:35:01;100706.88;;;-1.80;72.08
63903;BME280;50072;50.678;13.938;2023-01-29T08:37:27;100700.34;;;-1.69;71.94
63903;BME280;50072;50.678;13.938;2023-01-29T08:39:53;100703.03;;;-1.67;71.91
63903;BME280;50072;50.678;13.938;2023-01-29T08:42:19;100702.47;;;-1.60;71.91
63903;BME280;50072;50.678;13.938;2023-01-29T08:44:45;100692.38;;;-1.72;71.58
63903;BME280;50072;50.678;13.938;2023-01-29T08:47:11;100674.78;;;-1.52;71.95
63903;BME280;50072;50.678;13.938;2023-01-29T08:49:38;100691.81;;;-1.42;71.83
63903;BME280;50072;50.678;13.938;2023-01-29T08:52:06;100691.41;;;-1.30;71.63
63903;BME280;50072;50.678;13.938;2023-01-29T08:54:32;100696.22;;;-1.18;71.23
63903;BME280;50072;50.678;13.938;2023-01-29T08:56:58;100685.53;;;-1.23;70.20
63903;BME280;50072;50.678;13.938;2023-01-29T08:59:25;100679.09;;;-1.31;70.62
63903;BME280;50072;50.678;13.938;2023-01-29T09:01:51;100677.72;;;-1.22;70.43
63903;BME280;50072;50.678;13.938;2023-01-29T09:04:17;100696.81;;;-1.26;70.32
63903;BME280;50072;50.678;13.938;2023-01-29T09:06:43;100697.31;;;-1.13;69.86
63903;BME280;50072;50.678;13.938;2023-01-29T09:09:10;100703.63;;;-1.31;70.34
63903;BME280;50072;50.678;13.938;2023-01-29T09:11:36;100704.63;;;-1.27;70.19
63903;BME280;50072;50.678;13.938;2023-01-29T09:14:04;100713.50;;;-1.25;69.99
63903;BME280;50072;50.678;13.938;2023-01-29T09:16:31;100715.25;;;-1.24;70.85
63903;BME280;50072;50.678;13.938;2023-01-29T09:18:57;100721.44;;;-1.24;69.92
63903;BME280;50072;50.678;13.938;2023-01-29T09:21:23;100711.63;;;-1.28;70.01
63903;BME280;50072;50.678;13.938;2023-01-29T09:23:49;100701.91;;;-1.30;70.23
63903;BME280;50072;50.678;13.938;2023-01-29T09:26:15;100691.94;;;-1.16;70.04
63903;BME280;50072;50.678;13.938;2023-01-29T09:28:42;100691.63;;;-1.24;69.42
63903;BME280;50072;50.678;13.938;2023-01-29T09:31:08;100676.19;;;-1.39;70.29
63903;BME280;50072;50.678;13.938;2023-01-29T09:33:36;100680.59;;;-1.38;69.95
63903;BME280;50072;50.678;13.938;2023-01-29T09:36:02;100676.59;;;-1.51;70.37
63903;BME280;50072;50.678;13.938;2023-01-29T09:38:29;100681.25;;;-1.44;70.74
63903;BME280;50072;50.678;13.938;2023-01-29T09:46:29;100673.19;;;-1.03;68.90
63903;BME280;50072;50.678;13.938;2023-01-29T09:49:14;100664.66;;;-1.20;69.10
63903;BME280;50072;50.678;13.938;2023-01-29T09:52:05;100664.91;;;-1.14;69.04
63903;BME280;50072;50.678;13.938;2023-01-29T09:55:11;100661.72;;;-1.05;68.81
63903;BME280;50072;50.678;13.938;2023-01-29T09:58:20;100664.56;;;-0.99;67.89
63903;BME280;50072;50.678;13.938;2023-01-29T10:15:39;100643.34;;;-0.57;67.27
63903;BME280;50072;50.678;13.938;2023-01-29T10:24:15;100632.38;;;-0.69;66.79
63903;BME280;50072;50.678;13.938;2023-01-29T10:27:13;100625.38;;;-0.68;67.21
63903;BME280;50072;50.678;13.938;2023-01-29T10:30:16;100616.19;;;-0.56;67.18
63903;BME280;50072;50.678;13.938;2023-01-29T10:32:53;100609.88;;;-0.61;67.07
63903;BME280;50072;50.678;13.938;2023-01-29T10:35:35;100612.81;;;-0.52;67.32
63903;BME280;50072;50.678;13.938;2023-01-29T10:58:48;100592.81;;;0.05;65.53
63903;BME280;50072;50.678;13.938;2023-01-29T11:01:22;100588.97;;;0.23;65.24
63903;BME280;50072;50.678;13.938;2023-01-29T11:04:05;100592.88;;;0.36;65.13
63903;BME280;50072;50.678;13.938;2023-01-29T11:06:38;100585.84;;;0.34;64.88
63903;BME280;50072;50.678;13.938;2023-01-29T11:09:24;100579.03;;;0.43;64.63
63903;BME280;50072;50.678;13.938;2023-01-29T11:11:57;100566.72;;;0.40;64.96
63903;BME280;50072;50.678;13.938;2023-01-29T11:14:50;100561.13;;;0.60;64.17
63903;BME280;50072;50.678;13.938;2023-01-29T11:17:22;100560.69;;;0.75;63.97
63903;BME280;50072;50.678;13.938;2023-01-29T11:20:12;100560.16;;;0.86;63.49
63903;BME280;50072;50.678;13.938;2023-01-29T11:22:57;100564.56;;;0.88;63.59
63903;BME280;50072;50.678;13.938;2023-01-29T11:25:38;100551.13;;;0.48;63.26
63903;BME280;50072;50.678;13.938;2023-01-29T11:28:09;100538.56;;;0.39;63.18
63903;BME280;50072;50.678;13.938;2023-01-29T11:30:38;100533.56;;;0.48;63.57
63903;BME280;50072;50.678;13.938;2023-01-29T11:35:37;100527.03;;;0.64;63.06
63903;BME280;50072;50.678;13.938;2023-01-29T11:38:23;100526.41;;;0.73;62.42
63903;BME280;50072;50.678;13.938;2023-01-29T11:41:06;100519.16;;;0.66;62.14
63903;BME280;50072;50.678;13.938;2023-01-29T11:43:38;100504.25;;;0.66;61.76
63903;BME280;50072;50.678;13.938;2023-01-29T11:46:13;100494.25;;;0.86;62.03
63903;BME280;50072;50.678;13.938;2023-01-29T11:48:49;100489.19;;;0.93;61.83
63903;BME280;50072;50.678;13.938;2023-01-29T11:51:38;100484.56;;;0.85;61.81
63903;BME280;50072;50.678;13.938;2023-01-29T11:54:09;100470.59;;;0.88;61.32
63903;BME280;50072;50.678;13.938;2023-01-29T11:56:46;100469.91;;;0.95;61.07
63903;BME280;50072;50.678;13.938;2023-01-29T11:59:36;100476.31;;;1.05;61.62
63903;BME280;50072;50.678;13.938;2023-01-29T12:05:03;100486.66;;;0.97;61.44
63903;BME280;50072;50.678;13.938;2023-01-29T12:07:31;100494.44;;;0.93;61.57
63903;BME280;50072;50.678;13.938;2023-01-29T12:09:58;100493.81;;;1.01;61.43
63903;BME280;50072;50.678;13.938;2023-01-29T12:12:40;100489.69;;;1.11;61.25
63903;BME280;50072;50.678;13.938;2023-01-29T12:15:21;100462.91;;;1.31;60.70
63903;BME280;50072;50.678;13.938;2023-01-29T12:18:25;100459.66;;;1.06;60.63
63903;BME280;50072;50.678;13.938;2023-01-29T12:21:22;100454.09;;;1.29;61.81
63903;BME280;50072;50.678;13.938;2023-01-29T12:24:03;100461.53;;;1.10;61.67
63903;BME280;50072;50.678;13.938;2023-01-29T12:26:48;100456.41;;;1.16;62.02
63903;BME280;50072;50.678;13.938;2023-01-29T12:29:33;100451.34;;;1.24;61.50
63903;BME280;50072;50.678;13.938;2023-01-29T12:35:35;100442.19;;;1.46;61.36
63903;BME280;50072;50.678;13.938;2023-01-29T12:40:17;100449.63;;;1.63;59.94
63903;BME280;50072;50.678;13.938;2023-01-29T12:42:48;100439.81;;;1.57;60.17
63903;BME280;50072;50.678;13.938;2023-01-29T12:45:18;100433.56;;;1.53;60.50
63903;BME280;50072;50.678;13.938;2023-01-29T12:47:48;100433.13;;;1.71;60.40
63903;BME280;50072;50.678;13.938;2023-01-29T12:50:20;100426.88;;;1.68;60.43
63903;BME280;50072;50.678;13.938;2023-01-29T12:52:49;100415.38;;;1.64;60.23
63903;BME280;50072;50.678;13.938;2023-01-29T12:56:25;100409.16;;;1.62;60.59
63903;BME280;50072;50.678;13.938;2023-01-29T12:58:36;100413.06;;;1.42;61.42
63903;BME280;50072;50.678;13.938;2023-01-29T13:01:39;100411.41;;;1.47;61.17
63903;BME280;50072;50.678;13.938;2023-01-29T13:04:06;100415.69;;;1.40;61.08
63903;BME280;50072;50.678;13.938;2023-01-29T13:06:41;100406.53;;;1.26;61.63
63903;BME280;50072;50.678;13.938;2023-01-29T13:09:14;100406.22;;;1.13;62.49
63903;BME280;50072;50.678;13.938;2023-01-29T13:11:50;100404.88;;;1.31;62.49
63903;BME280;50072;50.678;13.938;2023-01-29T13:14:47;100403.13;;;1.30;62.30
63903;BME280;50072;50.678;13.938;2023-01-29T13:17:39;100392.34;;;1.20;62.44
63903;BME280;50072;50.678;13.938;2023-01-29T13:20:22;100382.50;;;1.13;62.96
63903;BME280;50072;50.678;13.938;2023-01-29T13:23:21;100384.00;;;1.03;63.68
63903;BME280;50072;50.678;13.938;2023-01-29T13:26:06;100392.13;;;1.11;63.10
63903;BME280;50072;50.678;13.938;2023-01-29T13:28:36;100397.66;;;1.22;63.21
63903;BME280;50072;50.678;13.938;2023-01-29T13:34:25;100386.44;;;1.31;62.77
63903;BME280;50072;50.678;13.938;2023-01-29T13:37:08;100377.75;;;1.35;62.76
63903;BME280;50072;50.678;13.938;2023-01-29T13:40:03;100380.38;;;1.35;62.61
63903;BME280;50072;50.678;13.938;2023-01-29T13:45:50;100365.56;;;1.40;62.46
63903;BME280;50072;50.678;13.938;2023-01-29T13:50:51;100355.97;;;1.44;62.24
63903;BME280;50072;50.678;13.938;2023-01-29T13:53:39;100353.25;;;1.41;62.56
63903;BME280;50072;50.678;13.938;2023-01-29T13:56:39;100366.84;;;1.21;62.97
63903;BME280;50072;50.678;13.938;2023-01-29T13:59:23;100357.69;;;1.05;63.30
63903;BME280;50072;50.678;13.938;2023-01-29T14:02:18;100352.59;;;1.11;62.98
63903;BME280;50072;50.678;13.938;2023-01-29T14:10:43;100352.00;;;1.25;63.79
63903;BME280;50072;50.678;13.938;2023-01-29T14:18:53;100349.94;;;1.11;63.32
63903;BME280;50072;50.678;13.938;2023-01-29T14:21:33;100353.22;;;1.02;63.72
63903;BME280;50072;50.678;13.938;2023-01-29T14:24:16;100354.31;;;1.11;64.21
63903;BME280;50072;50.678;13.938;2023-01-29T14:26:46;100355.91;;;1.04;63.74
63903;BME280;50072;50.678;13.938;2023-01-29T14:29:35;100346.94;;;0.96;63.92
63903;BME280;50072;50.678;13.938;2023-01-29T14:34:44;100351.72;;;1.12;64.23
63903;BME280;50072;50.678;13.938;2023-01-29T14:40:25;100355.13;;;1.08;64.09
63903;BME280;50072;50.678;13.938;2023-01-29T14:43:16;100342.97;;;1.13;64.11
63903;BME280;50072;50.678;13.938;2023-01-29T14:45:47;100340.97;;;1.03;64.31
63903;BME280;50072;50.678;13.938;2023-01-29T14:51:13;100333.09;;;1.05;64.81
63903;BME280;50072;50.678;13.938;2023-01-29T14:53:57;100322.44;;;1.00;64.96
63903;BME280;50072;50.678;13.938;2023-01-29T14:56:47;100325.69;;;0.90;65.39
63903;BME280;50072;50.678;13.938;2023-01-29T14:59:29;100328.22;;;0.85;65.85
63903;BME280;50072;50.678;13.938;2023-01-29T15:02:10;100322.22;;;0.92;65.91
63903;BME280;50072;50.678;13.938;2023-01-29T15:04:50;100323.28;;;0.99;65.14
63903;BME280;50072;50.678;13.938;2023-01-29T15:07:29;100317.13;;;0.98;65.27
63903;BME280;50072;50.678;13.938;2023-01-29T15:16:02;100313.63;;;0.99;65.86
63903;BME280;50072;50.678;13.938;2023-01-29T15:18:40;100305.59;;;0.95;66.16
63903;BME280;50072;50.678;13.938;2023-01-29T15:21:17;100307.25;;;0.91;66.02
63903;BME280;50072;50.678;13.938;2023-01-29T15:23:45;100310.75;;;0.89;66.01
63903;BME280;50072;50.678;13.938;2023-01-29T15:26:28;100310.44;;;0.76;66.45
63903;BME280;50072;50.678;13.938;2023-01-29T15:29:21;100311.31;;;0.77;66.31
63903;BME280;50072;50.678;13.938;2023-01-29T15:31:48;100315.53;;;0.68;66.63
63903;BME280;50072;50.678;13.938;2023-01-29T15:34:17;100304.78;;;0.61;66.91
63903;BME280;50072;50.678;13.938;2023-01-29T15:36:54;100307.63;;;0.68;66.92
63903;BME280;50072;50.678;13.938;2023-01-29T15:39:41;100303.25;;;0.71;66.79
63903;BME280;50072;50.678;13.938;2023-01-29T15:42:13;100313.75;;;0.69;67.30
63903;BME280;50072;50.678;13.938;2023-01-29T15:44:49;100301.31;;;0.63;67.39
63903;BME280;50072;50.678;13.938;2023-01-29T15:47:17;100309.09;;;0.57;67.49
63903;BME280;50072;50.678;13.938;2023-01-29T15:49:47;100306.22;;;0.49;67.35
63903;BME280;50072;50.678;13.938;2023-01-29T15:52:23;100308.88;;;0.49;67.55
63903;BME280;50072;50.678;13.938;2023-01-29T15:55:03;100322.03;;;0.49;67.42
63903;BME280;50072;50.678;13.938;2023-01-29T15:57:39;100315.94;;;0.50;66.83